Observation data for Anton on 08/14/2019      Previous  Date  Next       Current Mesonet Observations  Soil Data  Daily Summary Page  Observations in Plain Language
KAOS 140500Z 06008KT 25/17 A3014 RMK A01 T02540168  RH  062%=      5-min Rain = 0
KAOS 140505Z 06009KT 25/17 A3014 RMK A01 T02530169  RH  063%=      5-min Rain = 0
KAOS 140510Z 06008KT 25/17 A3014 RMK A01 T02520169  RH  063%=      5-min Rain = 0
KAOS 140515Z 06008KT 25/17 A3014 RMK A01 T02510170  RH  064%=      5-min Rain = 0
KAOS 140520Z 06008KT 25/17 A3014 RMK A01 T02500170  RH  064%=      5-min Rain = 0
KAOS 140525Z 07007KT 25/17 A3014 RMK A01 T02500171  RH  065%=      5-min Rain = 0
KAOS 140530Z 10008KT 25/17 A3014 RMK A01 T02480171  RH  065%=      5-min Rain = 0
KAOS 140535Z 11008KT 25/17 A3013 RMK A01 T02470170  RH  065%=      5-min Rain = 0
KAOS 140540Z 09007KT 25/17 A3013 RMK A01 T02470171  RH  066%=      5-min Rain = 0
KAOS 140545Z 08006KT 25/17 A3013 RMK A01 T02450170  RH  066%=      5-min Rain = 0
KAOS 140550Z 08006KT 24/17 A3013 RMK A01 T02440170  RH  067%=      5-min Rain = 0
KAOS 140555Z 09007KT 24/17 A3014 RMK A01 T02420170  RH  068%=      5-min Rain = 0
KAOS 140600Z 09007KT 24/17 A3014 RMK A01 T02400171  RH  068%=      5-min Rain = 0
KAOS 140605Z 08007KT 24/17 A3014 RMK A01 T02410171  RH  068%=      5-min Rain = 0
KAOS 140610Z 08007KT 24/17 A3014 RMK A01 T02400172  RH  069%=      5-min Rain = 0
KAOS 140615Z 07007KT 24/17 A3014 RMK A01 T02390172  RH  069%=      5-min Rain = 0
KAOS 140620Z 08007KT 24/17 A3014 RMK A01 T02380172  RH  070%=      5-min Rain = 0
KAOS 140625Z 08007KT 24/17 A3014 RMK A01 T02370172  RH  070%=      5-min Rain = 0
KAOS 140630Z 08006KT 24/17 A3014 RMK A01 T02370172  RH  070%=      5-min Rain = 0
KAOS 140635Z 08006KT 24/17 A3014 RMK A01 T02360171  RH  071%=      5-min Rain = 0
KAOS 140640Z 08006KT 24/17 A3015 RMK A01 T02350171  RH  071%=      5-min Rain = 0
KAOS 140645Z 08006KT 23/17 A3015 RMK A01 T02330171  RH  072%=      5-min Rain = 0
KAOS 140650Z 08005KT 23/17 A3015 RMK A01 T02310171  RH  072%=      5-min Rain = 0
KAOS 140655Z 08005KT 23/17 A3015 RMK A01 T02300171  RH  073%=      5-min Rain = 0
KAOS 140700Z 07005KT 23/17 A3015 RMK A01 T02290171  RH  073%=      5-min Rain = 0
KAOS 140705Z 07006KT 23/17 A3015 RMK A01 T02290171  RH  073%=      5-min Rain = 0
KAOS 140710Z 05006KT 23/17 A3015 RMK A01 T02290172  RH  074%=      5-min Rain = 0
KAOS 140715Z 04008KT 23/17 A3015 RMK A01 T02270173  RH  075%=      5-min Rain = 0
KAOS 140720Z 04009KT 23/17 A3015 RMK A01 T02270174  RH  076%=      5-min Rain = 0
KAOS 140725Z 05009KT 23/17 A3015 RMK A01 T02270174  RH  076%=      5-min Rain = 0
KAOS 140730Z 05008KT 23/17 A3015 RMK A01 T02280174  RH  075%=      5-min Rain = 0
KAOS 140735Z 08007KT 23/17 A3016 RMK A01 T02290174  RH  075%=      5-min Rain = 0
KAOS 140740Z 08007KT 23/17 A3016 RMK A01 T02290173  RH  075%=      5-min Rain = 0
KAOS 140745Z 07006KT 23/17 A3016 RMK A01 T02280173  RH  075%=      5-min Rain = 0
KAOS 140750Z 06006KT 23/17 A3016 RMK A01 T02270173  RH  075%=      5-min Rain = 0
KAOS 140755Z 07006KT 23/17 A3016 RMK A01 T02260173  RH  076%=      5-min Rain = 0
KAOS 140800Z 07007KT 23/17 A3016 RMK A01 T02260173  RH  076%=      5-min Rain = 0
KAOS 140805Z 07008KT 23/17 A3016 RMK A01 T02280174  RH  075%=      5-min Rain = 0
KAOS 140810Z 07009KT 23/17 A3016 RMK A01 T02300174  RH  074%=      5-min Rain = 0
KAOS 140815Z 07009KT 23/17 A3016 RMK A01 T02300174  RH  074%=      5-min Rain = 0
KAOS 140820Z 08009KT 23/17 A3016 RMK A01 T02300174  RH  074%=      5-min Rain = 0
KAOS 140825Z 08007KT 23/17 A3016 RMK A01 T02300173  RH  074%=      5-min Rain = 0
KAOS 140830Z 08008KT 23/17 A3015 RMK A01 T02290174  RH  075%=      5-min Rain = 0
KAOS 140835Z 08007KT 23/17 A3015 RMK A01 T02290174  RH  075%=      5-min Rain = 0
KAOS 140840Z 07007KT 23/17 A3015 RMK A01 T02280174  RH  075%=      5-min Rain = 0
KAOS 140845Z 07006KT 23/17 A3015 RMK A01 T02280174  RH  075%=      5-min Rain = 0
KAOS 140850Z 07007KT 23/17 A3015 RMK A01 T02260174  RH  076%=      5-min Rain = 0
KAOS 140855Z 07007KT 23/17 A3015 RMK A01 T02260174  RH  076%=      5-min Rain = 0
KAOS 140900Z 07006KT 23/17 A3015 RMK A01 T02260174  RH  076%=      5-min Rain = 0
KAOS 140905Z 06006KT 22/17 A3015 RMK A01 T02240174  RH  077%=      5-min Rain = 0
KAOS 140910Z 06005KT 22/17 A3015 RMK A01 T02230174  RH  078%=      5-min Rain = 0
KAOS 140915Z 06006KT 22/17 A3015 RMK A01 T02220174  RH  078%=      5-min Rain = 0
KAOS 140920Z 05006KT 22/17 A3015 RMK A01 T02210174  RH  079%=      5-min Rain = 0
KAOS 140925Z 05005KT 22/18 A3015 RMK A01 T02190175  RH  080%=      5-min Rain = 0
KAOS 140930Z 05006KT 22/18 A3015 RMK A01 T02170175  RH  081%=      5-min Rain = 0
KAOS 140935Z 05007KT 22/18 A3015 RMK A01 T02180175  RH  081%=      5-min Rain = 0
KAOS 140940Z 05007KT 22/18 A3015 RMK A01 T02180175  RH  081%=      5-min Rain = 0
KAOS 140945Z 05007KT 22/18 A3016 RMK A01 T02180175  RH  081%=      5-min Rain = 0
KAOS 140950Z 05007KT 22/18 A3016 RMK A01 T02180175  RH  081%=      5-min Rain = 0
KAOS 140955Z 06007KT 22/18 A3016 RMK A01 T02180175  RH  081%=      5-min Rain = 0
KAOS 141000Z 06007KT 22/18 A3016 RMK A01 T02180175  RH  080%=      5-min Rain = 0
KAOS 141005Z 05007KT 22/18 A3016 RMK A01 T02180175  RH  081%=      5-min Rain = 0
KAOS 141010Z 05008KT 22/18 A3016 RMK A01 T02180175  RH  081%=      5-min Rain = 0
KAOS 141015Z 05007KT 22/18 A3017 RMK A01 T02180175  RH  080%=      5-min Rain = 0
KAOS 141020Z 05008KT 22/18 A3017 RMK A01 T02190175  RH  080%=      5-min Rain = 0
KAOS 141025Z 05008KT 22/18 A3017 RMK A01 T02210175  RH  079%=      5-min Rain = 0
KAOS 141030Z 04010KT 22/17 A3017 RMK A01 T02220174  RH  079%=      5-min Rain = 0
KAOS 141035Z 04010G17KT 22/17 A3018 RMK A01 T02210174  RH  079%=      5-min Rain = 0
KAOS 141040Z 04009G14KT 22/17 A3018 RMK A01 T02200174  RH  079%=      5-min Rain = 0
KAOS 141045Z 04010KT 22/17 A3018 RMK A01 T02180174  RH  080%=      5-min Rain = 0
KAOS 141050Z 04011KT 22/17 A3018 RMK A01 T02170174  RH  081%=      5-min Rain = 0
KAOS 141055Z 04011G18KT 22/17 A3018 RMK A01 T02160174  RH  081%=      5-min Rain = 0
KAOS 141100Z 04013G19KT 22/17 A3018 RMK A01 T02160173  RH  080%=      5-min Rain = 0
KAOS 141105Z 04014KT 22/17 A3018 RMK A01 T02160172  RH  080%=      5-min Rain = 0
KAOS 141110Z 04013KT 22/17 A3018 RMK A01 T02150172  RH  080%=      5-min Rain = 0
KAOS 141115Z 04013G18KT 21/17 A3018 RMK A01 T02140172  RH  081%=      5-min Rain = 0
KAOS 141120Z 04012KT 21/17 A3019 RMK A01 T02120171  RH  081%=      5-min Rain = 0
KAOS 141125Z 04014G19KT 21/17 A3019 RMK A01 T02110165  RH  079%=      5-min Rain = 0
KAOS 141130Z 04013G18KT 21/16 A3019 RMK A01 T02090160  RH  077%=      5-min Rain = 0
KAOS 141135Z 04013G19KT 21/16 A302 RMK A01 T02070158  RH  077%=      5-min Rain = 0
KAOS 141140Z 03013G18KT 21/16 A302 RMK A01 T02070157  RH  077%=      5-min Rain = 0
KAOS 141145Z 03013KT 21/16 A302 RMK A01 T02060156  RH  077%=      5-min Rain = 0
KAOS 141150Z 03012G17KT 21/15 A302 RMK A01 T02050153  RH  075%=      5-min Rain = 0
KAOS 141155Z 04013G18KT 20/15 A3021 RMK A01 T02040147  RH  073%=      5-min Rain = 0
KAOS 141200Z 04012G18KT 20/14 A3021 RMK A01 T02020143  RH  072%=      5-min Rain = 0
KAOS 141205Z 04013G18KT 20/14 A3021 RMK A01 T02010142  RH  072%=      5-min Rain = 0
KAOS 141210Z 04014KT 20/14 A3022 RMK A01 T02010140  RH  071%=      5-min Rain = 0
KAOS 141215Z 03013G18KT 20/14 A3022 RMK A01 T02010140  RH  071%=      5-min Rain = 0
KAOS 141220Z 03013KT 20/14 A3022 RMK A01 T02010141  RH  071%=      5-min Rain = 0
KAOS 141225Z 03013KT 20/14 A3023 RMK A01 T02000139  RH  071%=      5-min Rain = 0
KAOS 141230Z 03014KT 20/14 A3023 RMK A01 T01990137  RH  070%=      5-min Rain = 0
KAOS 141235Z 03014KT 20/14 A3023 RMK A01 T01990137  RH  070%=      5-min Rain = 0
KAOS 141240Z 04014KT 20/14 A3023 RMK A01 T01990136  RH  070%=      5-min Rain = 0
KAOS 141245Z 04012KT 20/14 A3024 RMK A01 T01990136  RH  070%=      5-min Rain = 0
KAOS 141250Z 04012G17KT 20/14 A3024 RMK A01 T01990138  RH  071%=      5-min Rain = 0
KAOS 141255Z 04011KT 20/14 A3024 RMK A01 T01990138  RH  071%=      5-min Rain = 0
KAOS 141300Z 04010KT 20/14 A3024 RMK A01 T02000139  RH  071%=      5-min Rain = 0
KAOS 141305Z 05010G16KT 20/14 A3025 RMK A01 T02010140  RH  071%=      5-min Rain = 0
KAOS 141310Z 04011G16KT 20/14 A3025 RMK A01 T02010141  RH  071%=      5-min Rain = 0
KAOS 141315Z 04012KT 20/14 A3025 RMK A01 T02010141  RH  071%=      5-min Rain = 0
KAOS 141320Z 05009KT 20/14 A3026 RMK A01 T02010141  RH  071%=      5-min Rain = 0
KAOS 141325Z 05009KT 20/14 A3026 RMK A01 T02020143  RH  072%=      5-min Rain = 0
KAOS 141330Z 03009KT 20/14 A3026 RMK A01 T02040144  RH  072%=      5-min Rain = 0
KAOS 141335Z 03011G16KT 21/14 A3027 RMK A01 T02060144  RH  071%=      5-min Rain = 0
KAOS 141340Z 03010KT 21/15 A3026 RMK A01 T02090146  RH  070%=      5-min Rain = 0
KAOS 141345Z 04011KT 21/15 A3026 RMK A01 T02110147  RH  070%=      5-min Rain = 0
KAOS 141350Z 04011G16KT 22/15 A3027 RMK A01 T02150148  RH  069%=      5-min Rain = 0
KAOS 141355Z 04010KT 22/15 A3027 RMK A01 T02150149  RH  069%=      5-min Rain = 0
KAOS 141400Z 04009KT 21/15 A3026 RMK A01 T02130147  RH  069%=      5-min Rain = 0
KAOS 141405Z 03010G15KT 21/15 A3027 RMK A01 T02140148  RH  069%=      5-min Rain = 0
KAOS 141410Z 02012KT 22/15 A3027 RMK A01 T02180149  RH  068%=      5-min Rain = 0
KAOS 141415Z 02011G17KT 22/15 A3027 RMK A01 T02190149  RH  067%=      5-min Rain = 0
KAOS 141420Z 01014G20KT 22/15 A3027 RMK A01 T02210149  RH  067%=      5-min Rain = 0
KAOS 141425Z 00014G19KT 22/15 A3027 RMK A01 T02210149  RH  066%=      5-min Rain = 0
KAOS 141430Z 00014G19KT 22/15 A3028 RMK A01 T02210147  RH  066%=      5-min Rain = 0
KAOS 141435Z 00014KT 22/15 A3027 RMK A01 T02230147  RH  065%=      5-min Rain = 0
KAOS 141440Z 01012G17KT 23/15 A3027 RMK A01 T02270150  RH  065%=      5-min Rain = 0
KAOS 141445Z 01012G17KT 23/15 A3027 RMK A01 T02300151  RH  064%=      5-min Rain = 0
KAOS 141450Z 01010KT 23/15 A3027 RMK A01 T02340153  RH  063%=      5-min Rain = 0
KAOS 141455Z 02010KT 24/15 A3027 RMK A01 T02360153  RH  062%=      5-min Rain = 0
KAOS 141500Z 02010KT 24/15 A3027 RMK A01 T02390153  RH  062%=      5-min Rain = 0
KAOS 141505Z 01009KT 24/16 A3027 RMK A01 T02440155  RH  060%=      5-min Rain = 0
KAOS 141510Z 01010KT 25/16 A3027 RMK A01 T02490157  RH  059%=      5-min Rain = 0
KAOS 141515Z 01009KT 25/16 A3027 RMK A01 T02500158  RH  059%=      5-min Rain = 0
KAOS 141520Z 01010KT 25/16 A3027 RMK A01 T02510158  RH  059%=      5-min Rain = 0
KAOS 141525Z 01009KT 26/16 A3027 RMK A01 T02550160  RH  058%=      5-min Rain = 0
KAOS 141530Z 01010KT 26/16 A3026 RMK A01 T02580159  RH  057%=      5-min Rain = 0
KAOS 141535Z 01009KT 26/16 A3026 RMK A01 T02610160  RH  056%=      5-min Rain = 0
KAOS 141540Z 01010G15KT 27/16 A3025 RMK A01 T02660160  RH  055%=      5-min Rain = 0
KAOS 141545Z 03008G13KT 27/16 A3025 RMK A01 T02690161  RH  054%=      5-min Rain = 0
KAOS 141550Z 05009G14KT 27/16 A3025 RMK A01 T02730159  RH  052%=      5-min Rain = 0
KAOS 141555Z 03010KT 27/15 A3025 RMK A01 T02730151  RH  049%=      5-min Rain = 0
KAOS 141600Z 03009KT 28/16 A3025 RMK A01 T02760155  RH  050%=      5-min Rain = 0
KAOS 141605Z 05008KT 28/15 A3024 RMK A01 T02780150  RH  048%=      5-min Rain = 0
KAOS 141610Z 05009KT 28/15 A3024 RMK A01 T02820148  RH  046%=      5-min Rain = 0
KAOS 141615Z 06007KT 28/15 A3023 RMK A01 T02840151  RH  046%=      5-min Rain = 0
KAOS 141620Z 06007KT 28/15 A3022 RMK A01 T02830146  RH  045%=      5-min Rain = 0
KAOS 141625Z 08010KT 28/15 A3022 RMK A01 T02810145  RH  046%=      5-min Rain = 0
KAOS 141630Z 08011KT 29/14 A3021 RMK A01 T02880142  RH  043%=      5-min Rain = 0
KAOS 141635Z 09011KT 29/15 A302 RMK A01 T02900146  RH  043%=      5-min Rain = 0
KAOS 141640Z 09012KT 29/15 A302 RMK A01 T02910145  RH  043%=      5-min Rain = 0
KAOS 141645Z 08012KT 29/14 A302 RMK A01 T02920140  RH  041%=      5-min Rain = 0
KAOS 141650Z 10012KT 29/14 A3019 RMK A01 T02940135  RH  039%=      5-min Rain = 0
KAOS 141655Z 10012G17KT 30/14 A3019 RMK A01 T02970136  RH  039%=      5-min Rain = 0
KAOS 141700Z 10009KT 30/13 A302 RMK A01 T03030134  RH  037%=      5-min Rain = 0
KAOS 141705Z 11008G13KT 30/14 A302 RMK A01 T03000135  RH  038%=      5-min Rain = 0
KAOS 141710Z 11009KT 30/14 A302 RMK A01 T03030137  RH  038%=      5-min Rain = 0
KAOS 141715Z 11010KT 31/14 A302 RMK A01 T03060136  RH  037%=      5-min Rain = 0
KAOS 141720Z 08010G15KT 31/13 A302 RMK A01 T03110129  RH  034%=      5-min Rain = 0
KAOS 141725Z 09009KT 31/13 A302 RMK A01 T03110130  RH  035%=      5-min Rain = 0
KAOS 141730Z 10009G14KT 31/14 A302 RMK A01 T03120137  RH  036%=      5-min Rain = 0
KAOS 141735Z 10010KT 31/13 A302 RMK A01 T03100131  RH  035%=      5-min Rain = 0
KAOS 141740Z 08010KT 31/13 A302 RMK A01 T03140130  RH  034%=      5-min Rain = 0
KAOS 141745Z 08011G17KT 32/13 A302 RMK A01 T03160130  RH  033%=      5-min Rain = 0
KAOS 141750Z 08011KT 32/13 A302 RMK A01 T03170127  RH  032%=      5-min Rain = 0
KAOS 141755Z 07010G17KT 32/13 A302 RMK A01 T03190132  RH  033%=      5-min Rain = 0
KAOS 141800Z 07012KT 32/12 A302 RMK A01 T03180123  RH  032%=      5-min Rain = 0
KAOS 141805Z 05011G17KT 32/12 A302 RMK A01 T03220124  RH  031%=      5-min Rain = 0
KAOS 141810Z 07010KT 32/12 A302 RMK A01 T03200119  RH  030%=      5-min Rain = 0
KAOS 141815Z 07009G15KT 32/12 A302 RMK A01 T03220122  RH  031%=      5-min Rain = 0
KAOS 141820Z 05012G17KT 32/12 A302 RMK A01 T03210115  RH  029%=      5-min Rain = 0
KAOS 141825Z 04009G16KT 32/11 A302 RMK A01 T03200114  RH  029%=      5-min Rain = 0
KAOS 141830Z 04011G17KT 32/12 A302 RMK A01 T03230118  RH  030%=      5-min Rain = 0
KAOS 141835Z 03009G14KT 33/12 A302 RMK A01 T03260118  RH  029%=      5-min Rain = 0
KAOS 141840Z 05009G16KT 32/12 A302 RMK A01 T03240120  RH  030%=      5-min Rain = 0
KAOS 141845Z 05009G16KT 32/12 A3019 RMK A01 T03210118  RH  030%=      5-min Rain = 0
KAOS 141850Z 07011G16KT 32/12 A3019 RMK A01 T03230118  RH  030%=      5-min Rain = 0
KAOS 141855Z 04009G14KT 32/12 A3019 RMK A01 T03210117  RH  030%=      5-min Rain = 0
KAOS 141900Z 05008G13KT 33/12 A3019 RMK A01 T03250122  RH  030%=      5-min Rain = 0
KAOS 141905Z 05010KT 33/12 A3019 RMK A01 T03320120  RH  029%=      5-min Rain = 0
KAOS 141910Z 07007G14KT 33/11 A3019 RMK A01 T03270113  RH  028%=      5-min Rain = 0
KAOS 141915Z 04009G17KT 33/12 A3019 RMK A01 T03300118  RH  029%=      5-min Rain = 0
KAOS 141920Z 04008KT 33/12 A3019 RMK A01 T03300117  RH  028%=      5-min Rain = 0
KAOS 141925Z 02011G17KT 33/11 A3019 RMK A01 T03290110  RH  027%=      5-min Rain = 0
KAOS 141930Z 03013KT 33/11 A3019 RMK A01 T03290113  RH  028%=      5-min Rain = 0
KAOS 141935Z 02011G16KT 33/11 A3019 RMK A01 T03280112  RH  028%=      5-min Rain = 0
KAOS 141940Z 03010G17KT 33/12 A3019 RMK A01 T03290115  RH  028%=      5-min Rain = 0
KAOS 141945Z 03011G17KT 33/12 A3019 RMK A01 T03310120  RH  029%=      5-min Rain = 0
KAOS 141950Z 03007KT 33/11 A3018 RMK A01 T03270114  RH  028%=      5-min Rain = 0
KAOS 141955Z 02010KT 33/12 A3018 RMK A01 T03300119  RH  029%=      5-min Rain = 0
KAOS 142000Z 02009G16KT 33/12 A3018 RMK A01 T03300116  RH  028%=      5-min Rain = 0
KAOS 142005Z 02007KT 33/11 A3017 RMK A01 T03290110  RH  027%=      5-min Rain = 0
KAOS 142010Z 07009KT 33/12 A3017 RMK A01 T03290117  RH  028%=      5-min Rain = 0
KAOS 142015Z 04007KT 33/12 A3017 RMK A01 T03300115  RH  028%=      5-min Rain = 0
KAOS 142020Z 02004KT 33/11 A3016 RMK A01 T03290111  RH  027%=      5-min Rain = 0
KAOS 142025Z 04009KT 33/12 A3016 RMK A01 T03300118  RH  028%=      5-min Rain = 0
KAOS 142030Z 02005KT 33/11 A3016 RMK A01 T03290112  RH  027%=      5-min Rain = 0
KAOS 142035Z 02003KT 33/11 A3015 RMK A01 T03290111  RH  027%=      5-min Rain = 0
KAOS 142040Z 04004G11KT 33/12 A3015 RMK A01 T03300118  RH  028%=      5-min Rain = 0
KAOS 142045Z 07005G13KT 33/12 A3015 RMK A01 T03300124  RH  030%=      5-min Rain = 0
KAOS 142050Z 07006G12KT 33/13 A3014 RMK A01 T03310125  RH  030%=      5-min Rain = 0
KAOS 142055Z 07006G11KT 33/13 A3014 RMK A01 T03310125  RH  030%=      5-min Rain = 0
KAOS 142100Z 07004KT 33/13 A3014 RMK A01 T03320125  RH  030%=      5-min Rain = 0
KAOS 142105Z 05005KT 33/13 A3013 RMK A01 T03340125  RH  029%=      5-min Rain = 0
KAOS 142110Z 03008KT 33/12 A3013 RMK A01 T03330121  RH  029%=      5-min Rain = 0
KAOS 142115Z 02003G8KT 33/11 A3013 RMK A01 T03320114  RH  027%=      5-min Rain = 0
KAOS 142120Z 01002KT 34/11 A3013 RMK A01 T03360113  RH  027%=      5-min Rain = 0
KAOS 142125Z 02003KT 34/12 A3012 RMK A01 T03350115  RH  027%=      5-min Rain = 0
KAOS 142130Z 08005KT 34/13 A3012 RMK A01 T03380125  RH  029%=      5-min Rain = 0
KAOS 142135Z 04006KT 34/13 A3012 RMK A01 T03370131  RH  030%=      5-min Rain = 0
KAOS 142140Z 01006KT 34/13 A3012 RMK A01 T03360125  RH  029%=      5-min Rain = 0
KAOS 142145Z 03002G7KT 34/12 A3012 RMK A01 T03370124  RH  028%=      5-min Rain = 0
KAOS 142150Z 05001KT 34/12 A3012 RMK A01 T03380120  RH  028%=      5-min Rain = 0
KAOS 142155Z 08001KT 34/12 A3011 RMK A01 T03410121  RH  027%=      5-min Rain = 0
KAOS 142200Z 10003KT 34/12 A3011 RMK A01 T03390119  RH  027%=      5-min Rain = 0
KAOS 142205Z 12005KT 34/12 A3011 RMK A01 T03370117  RH  027%=      5-min Rain = 0
KAOS 142210Z 13005KT 34/12 A3011 RMK A01 T03400118  RH  027%=      5-min Rain = 0
KAOS 142215Z 16002KT 34/11 A3011 RMK A01 T03390113  RH  026%=      5-min Rain = 0
KAOS 142220Z 17002KT 34/11 A3011 RMK A01 T03400114  RH  026%=      5-min Rain = 0
KAOS 142225Z 13002KT 34/12 A301 RMK A01 T03420115  RH  026%=      5-min Rain = 0
KAOS 142230Z 10001KT 34/11 A301 RMK A01 T03400114  RH  026%=      5-min Rain = 0
KAOS 142235Z 10002KT 35/12 A301 RMK A01 T03460116  RH  026%=      5-min Rain = 0
KAOS 142240Z 34004KT 34/12 A301 RMK A01 T03400116  RH  027%=      5-min Rain = 0
KAOS 142245Z 33005KT 34/11 A301 RMK A01 T03420114  RH  026%=      5-min Rain = 0
KAOS 142250Z 01002KT 34/12 A301 RMK A01 T03400116  RH  027%=      5-min Rain = 0
KAOS 142255Z 03002KT 34/11 A301 RMK A01 T03380113  RH  026%=      5-min Rain = 0
KAOS 142300Z 34002KT 34/12 A301 RMK A01 T03420115  RH  026%=      5-min Rain = 0
KAOS 142305Z 02003KT 35/12 A301 RMK A01 T03450116  RH  026%=      5-min Rain = 0
KAOS 142310Z 07005KT 34/12 A301 RMK A01 T03420118  RH  027%=      5-min Rain = 0
KAOS 142315Z 07004KT 34/12 A301 RMK A01 T03400120  RH  027%=      5-min Rain = 0
KAOS 142320Z 10003KT 34/12 A301 RMK A01 T03410118  RH  027%=      5-min Rain = 0
KAOS 142325Z 11004KT 34/12 A301 RMK A01 T03400118  RH  027%=      5-min Rain = 0
KAOS 142330Z 08005KT 34/12 A301 RMK A01 T03380117  RH  027%=      5-min Rain = 0
KAOS 142335Z 10005KT 34/12 A301 RMK A01 T03370117  RH  027%=      5-min Rain = 0
KAOS 142340Z 10006KT 34/12 A301 RMK A01 T03350117  RH  027%=      5-min Rain = 0
KAOS 142345Z 09005KT 34/12 A301 RMK A01 T03350119  RH  028%=      5-min Rain = 0
KAOS 142350Z 11005KT 34/12 A301 RMK A01 T03350117  RH  028%=      5-min Rain = 0
KAOS 142355Z 10005KT 34/12 A3009 RMK A01 T03350118  RH  028%=      5-min Rain = 0
KAOS 150000Z 10007KT 33/12 A301 RMK A01 T03340116  RH  028%=      5-min Rain = 0
KAOS 150005Z 10005KT 33/11 A301 RMK A01 T03330114  RH  027%=      5-min Rain = 0
KAOS 150010Z 09006KT 33/12 A301 RMK A01 T03330116  RH  028%=      5-min Rain = 0
KAOS 150015Z 09005KT 33/11 A301 RMK A01 T03320114  RH  027%=      5-min Rain = 0
KAOS 150020Z 07007KT 33/11 A301 RMK A01 T03290114  RH  028%=      5-min Rain = 0
KAOS 150025Z 08006KT 33/11 A301 RMK A01 T03290110  RH  027%=      5-min Rain = 0
KAOS 150030Z 08006KT 33/12 A301 RMK A01 T03290115  RH  028%=      5-min Rain = 0
KAOS 150035Z 07006KT 33/12 A301 RMK A01 T03270116  RH  029%=      5-min Rain = 0
KAOS 150040Z 06005KT 33/12 A301 RMK A01 T03250117  RH  029%=      5-min Rain = 0
KAOS 150045Z 07004KT 32/12 A301 RMK A01 T03240117  RH  029%=      5-min Rain = 0
KAOS 150050Z 09006KT 32/12 A301 RMK A01 T03240115  RH  029%=      5-min Rain = 0
KAOS 150055Z 10006KT 32/11 A3011 RMK A01 T03210114  RH  029%=      5-min Rain = 0
KAOS 150100Z 10006KT 32/11 A3011 RMK A01 T03170114  RH  030%=      5-min Rain = 0
KAOS 150105Z 10005KT 31/12 A3011 RMK A01 T03130116  RH  031%=      5-min Rain = 0
KAOS 150110Z 09004KT 31/12 A3011 RMK A01 T03080120  RH  033%=      5-min Rain = 0
KAOS 150115Z 09003KT 30/12 A3011 RMK A01 T03040122  RH  034%=      5-min Rain = 0
KAOS 150120Z 10003KT 30/12 A3011 RMK A01 T03020123  RH  035%=      5-min Rain = 0
KAOS 150125Z 09004KT 30/12 A3012 RMK A01 T02980124  RH  036%=      5-min Rain = 0
KAOS 150130Z 09005KT 29/12 A3012 RMK A01 T02930124  RH  037%=      5-min Rain = 0
KAOS 150135Z 09005KT 29/13 A3012 RMK A01 T02900125  RH  038%=      5-min Rain = 0
KAOS 150140Z 10005KT 29/13 A3012 RMK A01 T02870125  RH  038%=      5-min Rain = 0
KAOS 150145Z 10005KT 28/12 A3012 RMK A01 T02840124  RH  038%=      5-min Rain = 0
KAOS 150150Z 10005KT 28/12 A3012 RMK A01 T02810123  RH  039%=      5-min Rain = 0
KAOS 150155Z 10005KT 28/12 A3013 RMK A01 T02790123  RH  040%=      5-min Rain = 0
KAOS 150200Z 09005KT 28/12 A3013 RMK A01 T02770124  RH  040%=      5-min Rain = 0
KAOS 150205Z 08005KT 27/13 A3013 RMK A01 T02730132  RH  043%=      5-min Rain = 0
KAOS 150210Z 08005KT 27/14 A3013 RMK A01 T02690139  RH  047%=      5-min Rain = 0
KAOS 150215Z 08005KT 27/14 A3014 RMK A01 T02660137  RH  047%=      5-min Rain = 0
KAOS 150220Z 08006KT 27/13 A3014 RMK A01 T02670130  RH  045%=      5-min Rain = 0
KAOS 150225Z 08004KT 27/13 A3014 RMK A01 T02690126  RH  043%=      5-min Rain = 0
KAOS 150230Z 08003KT 27/13 A3014 RMK A01 T02660128  RH  044%=      5-min Rain = 0
KAOS 150235Z 07005KT 27/13 A3015 RMK A01 T02650127  RH  044%=      5-min Rain = 0
KAOS 150240Z 07006KT 27/12 A3015 RMK A01 T02650123  RH  043%=      5-min Rain = 0
KAOS 150245Z 08006KT 27/12 A3014 RMK A01 T02690121  RH  041%=      5-min Rain = 0
KAOS 150250Z 09005KT 27/12 A3015 RMK A01 T02660121  RH  042%=      5-min Rain = 0
KAOS 150255Z 08004KT 26/12 A3015 RMK A01 T02620122  RH  043%=      5-min Rain = 0
KAOS 150300Z 07005KT 26/12 A3015 RMK A01 T02600123  RH  044%=      5-min Rain = 0
KAOS 150305Z 07006KT 26/12 A3015 RMK A01 T02600123  RH  044%=      5-min Rain = 0
KAOS 150310Z 08006KT 26/12 A3015 RMK A01 T02620124  RH  044%=      5-min Rain = 0
KAOS 150315Z 09005KT 26/12 A3015 RMK A01 T02610124  RH  044%=      5-min Rain = 0
KAOS 150320Z 08003KT 25/13 A3015 RMK A01 T02540125  RH  047%=      5-min Rain = 0
KAOS 150325Z 09004KT 25/13 A3015 RMK A01 T02500126  RH  048%=      5-min Rain = 0
KAOS 150330Z 09006KT 25/12 A3016 RMK A01 T02480124  RH  048%=      5-min Rain = 0
KAOS 150335Z 08007KT 25/13 A3016 RMK A01 T02530125  RH  047%=      5-min Rain = 0
KAOS 150340Z 08006KT 26/13 A3016 RMK A01 T02560126  RH  046%=      5-min Rain = 0
KAOS 150345Z 08007KT 26/13 A3016 RMK A01 T02550126  RH  047%=      5-min Rain = 0
KAOS 150350Z 09007KT 26/13 A3017 RMK A01 T02580127  RH  046%=      5-min Rain = 0
KAOS 150355Z 09008KT 26/13 A3017 RMK A01 T02600127  RH  045%=      5-min Rain = 0
KAOS 150400Z 09008KT 26/13 A3017 RMK A01 T02610128  RH  045%=      5-min Rain = 0
KAOS 150405Z 08007KT 26/13 A3017 RMK A01 T02600129  RH  046%=      5-min Rain = 0
KAOS 150410Z 09008KT 26/13 A3017 RMK A01 T02590129  RH  047%=      5-min Rain = 0
KAOS 150415Z 09008KT 26/13 A3017 RMK A01 T02570129  RH  047%=      5-min Rain = 0
KAOS 150420Z 09008KT 26/13 A3017 RMK A01 T02560131  RH  048%=      5-min Rain = 0
KAOS 150425Z 10007KT 26/13 A3017 RMK A01 T02550132  RH  048%=      5-min Rain = 0
KAOS 150430Z 10007KT 25/13 A3017 RMK A01 T02540133  RH  049%=      5-min Rain = 0
KAOS 150435Z 10006KT 25/13 A3017 RMK A01 T02540134  RH  049%=      5-min Rain = 0
KAOS 150440Z 10006KT 25/13 A3017 RMK A01 T02520134  RH  050%=      5-min Rain = 0
KAOS 150445Z 10007KT 25/14 A3017 RMK A01 T02530135  RH  050%=      5-min Rain = 0
KAOS 150450Z 10007KT 25/14 A3017 RMK A01 T02530137  RH  051%=      5-min Rain = 0
KAOS 150455Z 10006KT 25/14 A3017 RMK A01 T02530139  RH  051%=      5-min Rain = 0

Page generated in 0.009 seconds.